createdAt,value
2019-01-19T00:01:26.745Z,19.73
2019-01-19T00:03:54.198Z,15.03
2019-01-19T00:06:51.659Z,15.70
2019-01-19T00:09:27.646Z,15.73
2019-01-19T00:12:07.012Z,18.23
2019-01-19T00:14:31.516Z,14.53
2019-01-19T00:17:13.359Z,16.33
2019-01-19T00:19:57.352Z,12.30
2019-01-19T00:22:38.952Z,16.50
2019-01-19T00:25:27.261Z,15.73
2019-01-19T00:28:10.925Z,21.97
2019-01-19T00:30:44.198Z,15.93
2019-01-19T00:33:17.109Z,17.50
2019-01-19T00:35:59.666Z,17.70
2019-01-19T00:38:59.825Z,17.17
2019-01-19T00:41:45.193Z,15.90
2019-01-19T00:44:24.207Z,17.37
2019-01-19T00:46:51.668Z,16.63
2019-01-19T00:49:18.028Z,21.30
2019-01-19T00:51:45.486Z,18.97
2019-01-19T00:54:21.807Z,21.10
2019-01-19T00:56:49.289Z,19.43
2019-01-19T00:59:16.744Z,20.93
2019-01-19T01:02:03.674Z,18.50
2019-01-19T01:04:42.793Z,16.30
2019-01-19T01:07:26.631Z,17.17
2019-01-19T01:10:13.237Z,16.60
2019-01-19T01:13:01.351Z,17.67
2019-01-19T01:15:40.644Z,22.00
2019-01-19T01:18:16.774Z,19.97
2019-01-19T01:20:49.912Z,20.07
2019-01-19T01:23:32.439Z,20.40
2019-01-19T01:26:20.643Z,17.53
2019-01-19T01:28:50.794Z,20.40
2019-01-19T01:31:33.201Z,22.57
2019-01-19T01:34:18.594Z,22.20
2019-01-19T01:37:12.419Z,20.63
2019-01-19T01:39:42.607Z,21.93
2019-01-19T01:42:15.900Z,18.47
2019-01-19T01:45:13.513Z,22.23
2019-01-19T01:47:57.380Z,19.63
2019-01-19T01:50:33.656Z,18.67
2019-01-19T01:53:24.806Z,24.73
2019-01-19T01:55:49.224Z,18.60
2019-01-19T01:58:16.682Z,24.17
2019-01-19T02:00:44.165Z,21.80
2019-01-19T02:03:35.705Z,20.33
2019-01-19T02:06:05.895Z,21.17
2019-01-19T02:08:39.154Z,22.83
2019-01-19T02:11:09.624Z,22.30
2019-01-19T02:13:48.907Z,26.47
2019-01-19T02:16:32.534Z,25.10
2019-01-19T02:19:11.711Z,25.30
2019-01-19T02:21:50.843Z,23.73
2019-01-19T02:24:35.993Z,25.37
2019-01-19T02:27:37.871Z,25.43
2019-01-19T02:30:07.997Z,29.10
2019-01-19T02:32:57.801Z,29.67
2019-01-19T02:35:48.363Z,26.33
2019-01-19T02:38:15.071Z,22.50
2019-01-19T02:40:48.194Z,23.23
2019-01-19T02:43:21.158Z,27.57
2019-01-19T02:45:54.299Z,25.20
2019-01-19T02:48:38.877Z,28.90
2019-01-19T02:51:18.185Z,22.60
2019-01-19T02:54:04.544Z,25.90
2019-01-19T02:56:40.995Z,24.67
2019-01-19T02:59:14.052Z,28.47
2019-01-19T03:01:49.630Z,24.17
2019-01-19T03:04:33.653Z,27.93
2019-01-19T03:07:21.825Z,27.40
2019-01-19T03:10:16.055Z,24.67
2019-01-19T03:12:51.602Z,26.00
2019-01-19T03:15:21.765Z,26.87
2019-01-19T03:18:09.865Z,25.97
2019-01-19T03:20:46.391Z,24.97
2019-01-19T03:23:28.905Z,26.13
2019-01-19T03:25:59.007Z,27.10
2019-01-19T03:29:02.434Z,28.53
2019-01-19T03:31:46.306Z,28.90
2019-01-19T03:34:31.134Z,29.03
2019-01-19T03:37:07.278Z,28.87
2019-01-19T03:39:51.145Z,27.30
2019-01-19T03:42:18.792Z,27.77
2019-01-19T03:45:01.073Z,28.57
2019-01-19T03:47:34.381Z,30.33
2019-01-19T03:50:31.678Z,30.03
2019-01-19T03:53:07.273Z,27.03
2019-01-19T03:55:55.438Z,27.40
2019-01-19T03:58:50.034Z,26.53
2019-01-19T04:01:35.152Z,26.73
2019-01-19T04:04:20.262Z,28.30
2019-01-19T04:06:56.296Z,32.83
2019-01-19T04:09:42.962Z,30.33
2019-01-19T04:12:37.307Z,28.57
2019-01-19T04:15:24.087Z,29.03
2019-01-19T04:17:57.353Z,30.00
2019-01-19T04:20:44.227Z,30.83
2019-01-19T04:23:08.640Z,28.70
2019-01-19T04:25:40.570Z,36.23
2019-01-19T04:28:05.874Z,36.20
2019-01-19T04:30:30.289Z,33.27
2019-01-19T04:32:54.709Z,29.70
2019-01-19T04:35:19.607Z,27.77
2019-01-19T04:37:44.033Z,35.40
2019-01-19T04:40:12.035Z,30.90
2019-01-19T04:42:37.224Z,35.67
2019-01-19T04:45:01.635Z,32.30
2019-01-19T04:47:26.032Z,33.57
2019-01-19T04:49:50.452Z,34.50
2019-01-19T04:52:14.858Z,30.50
2019-01-19T04:54:39.398Z,30.90
2019-01-19T04:57:03.794Z,31.43
2019-01-19T04:59:28.235Z,30.33
2019-01-19T05:01:52.636Z,34.90
2019-01-19T05:04:17.054Z,29.87
2019-01-19T05:06:41.504Z,30.10
2019-01-19T05:09:07.391Z,28.87
2019-01-19T05:11:31.856Z,26.77
2019-01-19T05:13:56.274Z,40.40
2019-01-19T05:16:20.745Z,27.30
2019-01-19T05:18:45.148Z,30.63
2019-01-19T05:21:09.778Z,28.17
2019-01-19T05:23:34.376Z,29.80
2019-01-19T05:25:58.857Z,33.70
2019-01-19T05:28:23.250Z,32.03
2019-01-19T05:30:47.729Z,30.10
2019-01-19T05:33:12.173Z,28.60
2019-01-19T05:35:36.585Z,26.40
2019-01-19T05:38:01.999Z,26.57
2019-01-19T05:40:26.496Z,26.47
2019-01-19T05:42:51.009Z,28.53
2019-01-19T05:45:15.580Z,26.00
2019-01-19T05:47:40.054Z,24.63
2019-01-19T05:50:07.854Z,28.30
2019-01-19T05:52:32.268Z,28.97
2019-01-19T05:54:56.711Z,25.97
2019-01-19T05:57:21.123Z,27.63
2019-01-19T05:59:45.573Z,30.40
2019-01-19T06:02:10.127Z,31.63
2019-01-19T06:04:34.523Z,28.67
2019-01-19T06:06:58.938Z,30.70
2019-01-19T06:09:23.351Z,26.13
2019-01-19T06:11:47.781Z,32.03
2019-01-19T06:14:12.191Z,28.93
2019-01-19T06:16:36.633Z,33.10
2019-01-19T06:19:01.127Z,29.07
2019-01-19T06:21:26.921Z,27.60
2019-01-19T06:23:51.353Z,26.83
2019-01-19T06:26:15.751Z,26.83
2019-01-19T06:28:40.556Z,27.00
2019-01-19T06:31:04.962Z,28.10
2019-01-19T06:33:29.388Z,27.10
2019-01-19T06:35:53.810Z,26.67
2019-01-19T06:38:18.226Z,28.83
2019-01-19T06:40:42.629Z,27.83
2019-01-19T06:43:07.041Z,26.17
2019-01-19T06:45:31.451Z,24.13
2019-01-19T06:47:55.868Z,27.63
2019-01-19T06:50:20.648Z,25.23
2019-01-19T06:52:45.125Z,25.63
2019-01-19T06:55:12.059Z,24.57
2019-01-19T06:57:36.500Z,24.40
2019-01-19T07:00:00.903Z,23.57
2019-01-19T07:02:25.328Z,26.30
2019-01-19T07:04:49.749Z,23.67
2019-01-19T07:07:14.203Z,22.07
2019-01-19T07:09:38.594Z,24.23
2019-01-19T07:12:03.168Z,21.30
2019-01-19T07:14:27.587Z,24.43
2019-01-19T07:16:52.000Z,22.83
2019-01-19T07:19:16.433Z,25.13
2019-01-19T07:21:40.852Z,25.83
2019-01-19T07:24:05.259Z,23.00
2019-01-19T07:26:29.656Z,23.53
2019-01-19T07:28:54.080Z,21.57
2019-01-19T07:31:18.494Z,22.00
2019-01-19T07:33:42.910Z,21.97
2019-01-19T07:36:07.345Z,22.00
2019-01-19T07:38:31.765Z,24.53
2019-01-19T07:40:56.208Z,21.10
2019-01-19T07:43:21.003Z,25.30
2019-01-19T07:45:45.793Z,20.90
2019-01-19T07:48:10.939Z,20.70
2019-01-19T07:50:35.352Z,17.53
2019-01-19T07:52:59.755Z,19.13
2019-01-19T07:55:24.159Z,20.03
2019-01-19T07:57:48.598Z,19.70
2019-01-19T08:00:21.949Z,19.53
2019-01-19T08:02:46.549Z,21.90
2019-01-19T08:05:11.187Z,17.80
2019-01-19T08:07:35.650Z,20.63
2019-01-19T08:10:00.135Z,17.37
2019-01-19T08:12:24.691Z,19.57
2019-01-19T08:14:49.110Z,21.03
2019-01-19T08:17:13.540Z,18.13
2019-01-19T08:19:37.964Z,17.43
2019-01-19T08:22:02.374Z,17.17
2019-01-19T08:24:26.808Z,16.50
2019-01-19T08:26:51.218Z,15.57
2019-01-19T08:29:15.656Z,16.03
2019-01-19T08:31:40.083Z,19.73
2019-01-19T08:34:04.552Z,20.07
2019-01-19T08:36:29.062Z,17.20
2019-01-19T08:38:53.464Z,15.57
2019-01-19T08:41:17.910Z,21.03
2019-01-19T08:43:43.962Z,14.60
2019-01-19T08:46:08.463Z,14.57
2019-01-19T08:48:32.876Z,16.33
2019-01-19T08:50:57.331Z,16.37
2019-01-19T08:53:21.735Z,15.43
2019-01-19T08:55:46.125Z,17.07
2019-01-19T08:58:10.637Z,16.83
2019-01-19T09:00:35.079Z,15.40
2019-01-19T09:02:59.508Z,12.93
2019-01-19T09:05:23.918Z,11.60
2019-01-19T09:07:48.350Z,14.07
2019-01-19T09:10:15.101Z,13.53
2019-01-19T09:12:39.540Z,11.90
2019-01-19T09:15:05.040Z,13.37
2019-01-19T09:17:29.430Z,15.53
2019-01-19T09:19:53.885Z,9.60
2019-01-19T09:22:18.383Z,11.90
2019-01-19T09:24:42.877Z,13.23
2019-01-19T09:27:07.280Z,10.43
2019-01-19T09:29:31.687Z,14.13
2019-01-19T09:31:56.095Z,9.83
2019-01-19T09:34:20.491Z,9.83
2019-01-19T09:36:44.879Z,9.10
2019-01-19T09:39:10.640Z,9.23
2019-01-19T09:41:35.050Z,11.73
2019-01-19T09:43:59.456Z,7.60
2019-01-19T09:46:23.896Z,8.30
2019-01-19T09:48:48.384Z,9.80
2019-01-19T09:51:12.893Z,12.13
2019-01-19T09:53:37.293Z,11.07
2019-01-19T09:56:01.730Z,11.60
2019-01-19T09:58:26.150Z,10.63
2019-01-19T10:00:50.557Z,8.10
2019-01-19T10:03:14.984Z,7.70
2019-01-19T10:05:39.389Z,8.17
2019-01-19T10:08:03.872Z,18.73
2019-01-19T10:10:28.335Z,8.17
2019-01-19T10:12:52.775Z,8.40
2019-01-19T10:15:21.179Z,6.53
2019-01-19T10:17:45.650Z,7.47
2019-01-19T10:20:13.205Z,10.17
2019-01-19T10:22:37.618Z,7.87
2019-01-19T10:25:02.054Z,5.83
2019-01-19T10:27:26.436Z,5.40
2019-01-19T10:29:50.857Z,4.37
2019-01-19T10:32:15.414Z,6.00
2019-01-19T10:34:39.770Z,7.87
2019-01-19T10:37:04.248Z,5.27
2019-01-19T10:39:28.672Z,5.57
2019-01-19T10:41:53.079Z,4.50
2019-01-19T10:44:17.466Z,4.60
2019-01-19T10:46:41.927Z,6.00
2019-01-19T10:49:06.282Z,3.93
2019-01-19T10:51:30.700Z,4.33
2019-01-19T10:53:55.111Z,14.20
2019-01-19T10:56:19.559Z,6.03
2019-01-19T10:58:43.952Z,5.03
2019-01-19T11:01:08.389Z,7.90
2019-01-19T11:03:32.786Z,7.13
2019-01-19T11:05:57.177Z,8.67
2019-01-19T11:08:21.615Z,6.90
2019-01-19T11:10:46.019Z,15.80
2019-01-19T11:13:10.450Z,12.60
2019-01-19T11:15:34.913Z,7.10
2019-01-19T11:17:59.430Z,12.40
2019-01-19T11:20:29.152Z,7.27
2019-01-19T11:22:53.784Z,7.43
2019-01-19T11:25:18.269Z,8.03
2019-01-19T11:27:42.668Z,7.90
2019-01-19T11:30:13.314Z,8.03
2019-01-19T11:32:44.291Z,6.67
2019-01-19T11:35:04.211Z,7.53
2019-01-19T11:37:28.599Z,8.00
2019-01-19T11:39:53.026Z,8.93
2019-01-19T11:42:17.413Z,9.13
2019-01-19T11:44:41.819Z,8.07
2019-01-19T11:47:06.237Z,7.80
2019-01-19T11:49:30.645Z,9.53
2019-01-19T11:51:55.080Z,7.37
2019-01-19T11:54:19.626Z,8.07
2019-01-19T11:56:44.021Z,7.73
2019-01-19T11:59:08.425Z,8.70
2019-01-19T12:01:32.834Z,7.67
2019-01-19T12:03:57.278Z,6.57
2019-01-19T12:06:21.667Z,9.63
2019-01-19T12:08:46.093Z,7.53
2019-01-19T12:11:10.481Z,10.27
2019-01-19T12:13:34.922Z,7.83
2019-01-19T12:15:59.356Z,12.30
2019-01-19T12:18:23.758Z,10.13
2019-01-19T12:20:48.180Z,7.90
2019-01-19T12:23:12.598Z,10.17
2019-01-19T12:25:37.076Z,9.00
2019-01-19T12:28:01.469Z,10.53
2019-01-19T12:30:28.918Z,8.50
2019-01-19T12:32:53.427Z,13.03
2019-01-19T12:35:18.207Z,12.30
2019-01-19T12:37:42.709Z,9.33
2019-01-19T12:40:10.163Z,10.73
2019-01-19T12:42:34.565Z,12.63
2019-01-19T12:44:58.974Z,9.70
2019-01-19T12:47:28.075Z,11.90
2019-01-19T12:49:52.488Z,12.80
2019-01-19T12:52:16.879Z,9.83
2019-01-19T12:54:41.297Z,10.90
2019-01-19T12:57:05.692Z,10.77
2019-01-19T12:59:30.131Z,11.67
2019-01-19T13:01:54.559Z,13.87
2019-01-19T13:04:18.966Z,12.17
2019-01-19T13:06:43.572Z,12.90
2019-01-19T13:09:12.679Z,15.67
2019-01-19T13:11:42.964Z,16.40
2019-01-19T13:14:07.373Z,14.03
2019-01-19T13:17:04.976Z,9.60
2019-01-19T13:19:32.433Z,14.83
2019-01-19T13:22:05.459Z,11.80
2019-01-19T13:24:50.443Z,10.97
2019-01-19T13:27:29.688Z,13.37
2019-01-19T13:30:21.206Z,12.23
2019-01-19T13:32:51.524Z,12.50
2019-01-19T13:35:40.003Z,12.83
2019-01-19T13:38:25.249Z,11.87
2019-01-19T13:41:01.778Z,13.07
2019-01-19T13:43:34.925Z,13.47
2019-01-19T13:46:08.402Z,14.07
2019-01-19T13:48:41.386Z,13.87
2019-01-19T13:51:14.380Z,14.03
2019-01-19T13:54:05.430Z,14.20
2019-01-19T13:56:44.497Z,17.47
2019-01-19T13:59:23.975Z,16.37
2019-01-19T14:02:30.302Z,16.23
2019-01-19T14:05:30.497Z,15.73
2019-01-19T14:07:57.973Z,16.03
2019-01-19T14:10:34.009Z,17.03
2019-01-19T14:13:01.458Z,17.20
2019-01-19T14:15:37.751Z,15.50
2019-01-19T14:18:19.909Z,15.27
2019-01-19T14:20:50.659Z,13.00
2019-01-19T14:23:37.138Z,16.67
2019-01-19T14:26:27.850Z,19.43
2019-01-19T14:29:00.873Z,15.97
2019-01-19T14:31:53.529Z,21.40
2019-01-19T14:34:26.853Z,22.80
2019-01-19T14:36:54.332Z,21.63
2019-01-19T14:39:42.536Z,21.73
2019-01-19T14:42:24.899Z,21.23
2019-01-19T14:45:03.917Z,18.50
2019-01-19T14:47:46.229Z,22.93
2019-01-19T14:50:22.478Z,18.13
2019-01-19T14:53:04.998Z,19.57
2019-01-19T14:55:38.320Z,19.53
2019-01-19T14:58:14.704Z,20.23
2019-01-19T15:00:48.131Z,19.17
2019-01-19T15:03:27.297Z,17.50
2019-01-19T15:06:03.569Z,16.43
2019-01-19T15:08:33.751Z,19.60
2019-01-19T15:11:03.654Z,16.33
2019-01-19T15:13:34.066Z,16.40
2019-01-19T15:16:25.263Z,14.57
2019-01-19T15:19:18.220Z,16.73
2019-01-19T15:21:57.389Z,15.33
2019-01-19T15:24:27.550Z,17.07
2019-01-19T15:27:23.258Z,17.13
2019-01-19T15:29:55.281Z,19.23
2019-01-19T15:32:31.454Z,19.43
2019-01-19T15:35:19.619Z,18.27
2019-01-19T15:38:07.402Z,21.93
2019-01-19T15:40:43.569Z,31.47
2019-01-19T15:43:13.686Z,42.97
2019-01-19T15:45:59.118Z,37.07
2019-01-19T15:48:34.990Z,41.60
2019-01-19T15:51:11.152Z,40.13
2019-01-19T15:53:38.613Z,40.53
2019-01-19T15:56:39.046Z,39.13
2019-01-19T15:59:24.227Z,38.37
2019-01-19T16:05:15.861Z,36.17
2019-01-19T16:07:46.081Z,27.80
2019-01-19T16:10:24.907Z,30.07
2019-01-19T16:12:52.383Z,17.60
2019-01-19T16:15:40.923Z,22.03
2019-01-19T16:18:26.386Z,21.00
2019-01-19T16:21:12.957Z,26.37
2019-01-19T16:23:49.319Z,30.73
2019-01-19T16:26:31.515Z,25.57
2019-01-19T16:29:04.965Z,25.63
2019-01-19T16:31:47.526Z,27.37
2019-01-19T16:34:43.436Z,31.33
2019-01-19T16:37:25.665Z,21.67
2019-01-19T16:40:04.995Z,21.33
2019-01-19T16:42:41.143Z,16.80
2019-01-19T16:45:20.335Z,17.63
2019-01-19T16:48:08.318Z,17.67
2019-01-19T16:50:59.324Z,18.83
2019-01-19T16:53:44.413Z,19.20
2019-01-19T16:56:20.940Z,16.73
2019-01-19T16:58:56.647Z,20.40
2019-01-19T17:01:33.292Z,17.57
2019-01-19T17:04:12.894Z,17.93
2019-01-19T17:07:01.038Z,18.70
2019-01-19T17:09:34.355Z,18.50
2019-01-19T17:12:22.604Z,20.27
2019-01-19T17:15:12.155Z,19.87
2019-01-19T17:17:59.913Z,21.67
2019-01-19T17:20:33.171Z,21.03
2019-01-19T17:23:12.306Z,21.70
2019-01-19T17:26:00.074Z,23.37
2019-01-19T17:28:30.451Z,26.33
2019-01-19T17:31:14.131Z,22.27
2019-01-19T17:33:47.345Z,21.77
2019-01-19T17:36:17.770Z,25.93
2019-01-19T17:38:47.894Z,21.87
2019-01-19T17:41:30.208Z,21.20
2019-01-19T17:44:06.561Z,26.10
2019-01-19T17:46:54.637Z,29.73
2019-01-19T17:49:27.647Z,28.13
2019-01-19T17:52:06.776Z,26.03
2019-01-19T17:54:36.967Z,26.93
2019-01-19T17:57:13.116Z,24.00
2019-01-19T17:59:43.265Z,21.20
2019-01-19T18:02:26.769Z,22.50
2019-01-19T18:05:12.063Z,21.80
2019-01-19T18:07:57.360Z,21.90
2019-01-19T18:10:42.569Z,20.50
2019-01-19T18:13:41.251Z,15.97
2019-01-19T18:16:37.118Z,18.60
2019-01-19T18:19:07.434Z,20.97
2019-01-19T18:21:43.020Z,18.53
2019-01-19T18:24:26.055Z,18.47
2019-01-19T18:27:08.085Z,18.23
2019-01-19T18:29:46.791Z,23.60
2019-01-19T18:32:33.180Z,21.23
2019-01-19T18:35:12.593Z,21.23
2019-01-19T18:37:51.971Z,22.87
2019-01-19T18:40:34.361Z,21.00
2019-01-19T18:43:31.150Z,20.37
2019-01-19T18:46:01.431Z,19.50
2019-01-19T18:48:37.697Z,20.50
2019-01-19T18:51:10.684Z,23.33
2019-01-19T18:53:40.819Z,20.97
2019-01-19T18:56:35.034Z,22.00
2019-01-19T18:59:08.358Z,21.03
2019-01-19T19:01:59.535Z,23.63
2019-01-19T19:04:32.594Z,20.93
2019-01-19T19:07:02.624Z,22.53
2019-01-19T19:09:33.072Z,21.80
2019-01-19T19:12:12.530Z,22.83
2019-01-19T19:14:57.979Z,20.67
2019-01-19T19:17:32.980Z,22.10
2019-01-19T19:20:15.107Z,24.47
2019-01-19T19:22:54.420Z,24.73
2019-01-19T19:25:33.888Z,22.73
2019-01-19T19:28:09.975Z,23.80
2019-01-19T19:30:55.421Z,26.50
2019-01-19T19:33:40.518Z,20.30
2019-01-19T19:36:34.245Z,21.00
2019-01-19T19:39:29.960Z,22.07
2019-01-19T19:42:16.417Z,22.87
2019-01-19T19:44:52.610Z,24.23
2019-01-19T19:47:32.096Z,26.53
2019-01-19T19:50:14.464Z,23.47
2019-01-19T19:52:38.911Z,27.70
2019-01-19T19:55:02.164Z,26.43
2019-01-19T19:57:26.594Z,23.60
2019-01-19T19:59:51.025Z,29.53
2019-01-19T20:02:31.258Z,26.63
2019-01-19T20:10:49.082Z,31.13
2019-01-19T20:13:13.489Z,32.97
2019-01-19T20:15:37.902Z,40.80
2019-01-19T20:18:02.315Z,39.50
2019-01-19T20:20:26.774Z,36.67
2019-01-19T20:22:51.175Z,33.43
2019-01-19T20:25:15.572Z,35.17
2019-01-19T20:27:40.014Z,34.27
2019-01-19T20:30:12.815Z,37.73
2019-01-19T20:32:37.235Z,35.20
2019-01-19T20:35:01.642Z,33.73
2019-01-19T20:37:26.059Z,37.67
2019-01-19T20:39:50.472Z,30.97
2019-01-19T20:42:14.875Z,28.37
2019-01-19T20:44:39.305Z,31.90
2019-01-19T20:47:03.796Z,31.20
2019-01-19T20:49:28.234Z,34.03
2019-01-19T20:51:52.666Z,33.07
2019-01-19T20:54:18.595Z,33.63
2019-01-19T20:56:43.019Z,27.53
2019-01-19T20:59:07.430Z,26.90
2019-01-19T21:01:31.861Z,31.77
2019-01-19T21:03:56.295Z,27.60
2019-01-19T21:06:21.748Z,27.50
2019-01-19T21:08:46.169Z,25.73
2019-01-19T21:11:10.606Z,31.47
2019-01-19T21:13:36.257Z,25.73
2019-01-19T21:16:00.637Z,26.77
2019-01-19T21:18:25.098Z,27.40
2019-01-19T21:20:49.513Z,31.23
2019-01-19T21:23:13.926Z,28.97
2019-01-19T21:25:38.358Z,27.17
2019-01-19T21:28:02.758Z,29.73
2019-01-19T21:30:27.201Z,26.83
2019-01-19T21:32:51.600Z,27.47
2019-01-19T21:35:16.120Z,32.07
2019-01-19T21:37:40.614Z,28.67
2019-01-19T21:40:13.244Z,30.33
2019-01-19T21:42:37.637Z,30.40
2019-01-19T21:45:02.087Z,35.67
2019-01-19T21:47:26.587Z,28.93
2019-01-19T21:49:51.206Z,29.60
2019-01-19T21:52:15.616Z,26.83
2019-01-19T21:54:40.037Z,31.87
2019-01-19T21:57:04.671Z,30.17
2019-01-19T21:59:29.094Z,32.33
2019-01-19T22:01:53.526Z,26.33
2019-01-19T22:04:17.924Z,27.33
2019-01-19T22:06:42.320Z,29.60
2019-01-19T22:09:07.491Z,33.37
2019-01-19T22:11:31.891Z,27.50
2019-01-19T22:13:56.320Z,29.00
2019-01-19T22:16:20.730Z,32.10
2019-01-19T22:18:45.183Z,29.13
2019-01-19T22:21:09.598Z,28.73
2019-01-19T22:23:34.003Z,26.27
2019-01-19T22:25:58.432Z,35.47
2019-01-19T22:28:22.869Z,27.73
2019-01-19T22:30:47.314Z,33.30
2019-01-19T22:33:12.105Z,27.87
2019-01-19T22:35:36.536Z,25.87
2019-01-19T22:38:00.952Z,26.87
2019-01-19T22:40:25.381Z,27.50
2019-01-19T22:42:50.083Z,28.03
2019-01-19T22:45:16.963Z,32.17
2019-01-19T22:47:41.404Z,25.03
2019-01-19T22:50:08.860Z,29.97
2019-01-19T22:52:33.317Z,30.50
2019-01-19T22:54:57.727Z,29.50
2019-01-19T22:57:22.161Z,30.70
2019-01-19T22:59:46.584Z,29.63
2019-01-19T23:02:11.053Z,28.53
2019-01-19T23:04:35.472Z,29.03
2019-01-19T23:06:59.887Z,29.00
2019-01-19T23:09:24.317Z,27.77
2019-01-19T23:11:48.796Z,29.60
2019-01-19T23:14:13.327Z,29.57
2019-01-19T23:16:37.752Z,27.90
2019-01-19T23:19:02.160Z,27.63
2019-01-19T23:21:26.597Z,27.60
2019-01-19T23:23:51.009Z,31.07
2019-01-19T23:26:15.712Z,30.77
2019-01-19T23:28:40.123Z,29.63
2019-01-19T23:31:04.538Z,30.43
2019-01-19T23:33:28.975Z,29.70
2019-01-19T23:35:53.409Z,25.57
2019-01-19T23:38:17.849Z,30.70
2019-01-19T23:40:42.323Z,30.60
2019-01-19T23:43:06.830Z,27.20
2019-01-19T23:45:31.254Z,28.63
2019-01-19T23:47:55.682Z,28.83
2019-01-19T23:50:20.078Z,24.70
2019-01-19T23:52:45.756Z,28.23
2019-01-19T23:55:10.171Z,30.13
2019-01-19T23:57:34.703Z,31.40
2019-01-19T23:59:59.146Z,31.60
